sensor_id;sensor_type;location;lat;lon;timestamp;P1;durP1;ratioP1;P2;durP2;ratioP2
18820;SDS011;9539;59.332;18.034;2024-02-28T00:01:06;8.00;;;5.88;;
18820;SDS011;9539;59.332;18.034;2024-02-28T00:03:28;6.07;;;5.10;;
18820;SDS011;9539;59.332;18.034;2024-02-28T00:05:52;7.32;;;5.68;;
18820;SDS011;9539;59.332;18.034;2024-02-28T00:08:13;6.78;;;5.43;;
18820;SDS011;9539;59.332;18.034;2024-02-28T00:10:35;7.35;;;5.65;;
18820;SDS011;9539;59.332;18.034;2024-02-28T00:12:58;7.53;;;5.72;;
18820;SDS011;9539;59.332;18.034;2024-02-28T00:15:20;7.15;;;5.60;;
18820;SDS011;9539;59.332;18.034;2024-02-28T00:17:41;6.57;;;5.30;;
18820;SDS011;9539;59.332;18.034;2024-02-28T00:20:03;9.00;;;6.32;;
18820;SDS011;9539;59.332;18.034;2024-02-28T00:22:25;7.65;;;6.22;;
18820;SDS011;9539;59.332;18.034;2024-02-28T00:24:47;6.55;;;5.38;;
18820;SDS011;9539;59.332;18.034;2024-02-28T00:27:08;6.95;;;5.50;;
18820;SDS011;9539;59.332;18.034;2024-02-28T00:29:31;8.77;;;5.60;;
18820;SDS011;9539;59.332;18.034;2024-02-28T00:31:53;7.72;;;5.30;;
18820;SDS011;9539;59.332;18.034;2024-02-28T00:34:15;6.80;;;5.57;;
18820;SDS011;9539;59.332;18.034;2024-02-28T00:36:36;6.90;;;5.22;;
18820;SDS011;9539;59.332;18.034;2024-02-28T00:38:58;6.25;;;5.05;;
18820;SDS011;9539;59.332;18.034;2024-02-28T00:41:19;6.00;;;4.90;;
18820;SDS011;9539;59.332;18.034;2024-02-28T00:43:41;7.18;;;5.22;;
18820;SDS011;9539;59.332;18.034;2024-02-28T00:46:04;5.60;;;4.88;;
18820;SDS011;9539;59.332;18.034;2024-02-28T00:48:31;5.85;;;4.97;;
18820;SDS011;9539;59.332;18.034;2024-02-28T00:50:53;5.55;;;4.60;;
18820;SDS011;9539;59.332;18.034;2024-02-28T00:53:14;5.68;;;4.65;;
18820;SDS011;9539;59.332;18.034;2024-02-28T00:55:36;7.68;;;5.03;;
18820;SDS011;9539;59.332;18.034;2024-02-28T00:57:58;7.38;;;5.57;;
18820;SDS011;9539;59.332;18.034;2024-02-28T01:00:19;6.18;;;4.85;;
18820;SDS011;9539;59.332;18.034;2024-02-28T01:02:42;5.55;;;4.72;;
18820;SDS011;9539;59.332;18.034;2024-02-28T01:05:04;5.57;;;4.80;;
18820;SDS011;9539;59.332;18.034;2024-02-28T01:07:26;6.10;;;5.00;;
18820;SDS011;9539;59.332;18.034;2024-02-28T01:09:48;7.28;;;4.85;;
18820;SDS011;9539;59.332;18.034;2024-02-28T01:12:10;5.68;;;4.68;;
18820;SDS011;9539;59.332;18.034;2024-02-28T01:14:31;5.80;;;4.80;;
18820;SDS011;9539;59.332;18.034;2024-02-28T01:16:53;5.40;;;4.07;;
18820;SDS011;9539;59.332;18.034;2024-02-28T01:19:16;5.07;;;4.57;;
18820;SDS011;9539;59.332;18.034;2024-02-28T01:21:38;5.70;;;4.57;;
18820;SDS011;9539;59.332;18.034;2024-02-28T01:24:00;5.13;;;3.80;;
18820;SDS011;9539;59.332;18.034;2024-02-28T01:26:21;5.20;;;4.70;;
18820;SDS011;9539;59.332;18.034;2024-02-28T01:28:43;5.70;;;4.55;;
18820;SDS011;9539;59.332;18.034;2024-02-28T01:31:05;4.57;;;3.90;;
18820;SDS011;9539;59.332;18.034;2024-02-28T01:33:27;5.05;;;4.20;;
18820;SDS011;9539;59.332;18.034;2024-02-28T01:35:50;4.78;;;4.03;;
18820;SDS011;9539;59.332;18.034;2024-02-28T01:38:11;4.30;;;3.90;;
18820;SDS011;9539;59.332;18.034;2024-02-28T01:40:33;6.10;;;4.30;;
18820;SDS011;9539;59.332;18.034;2024-02-28T01:42:55;6.25;;;4.30;;
18820;SDS011;9539;59.332;18.034;2024-02-28T01:45:16;5.63;;;4.50;;
18820;SDS011;9539;59.332;18.034;2024-02-28T01:47:38;5.40;;;4.50;;
18820;SDS011;9539;59.332;18.034;2024-02-28T01:50:00;5.65;;;4.43;;
18820;SDS011;9539;59.332;18.034;2024-02-28T01:52:23;6.13;;;4.57;;
18820;SDS011;9539;59.332;18.034;2024-02-28T01:54:44;4.93;;;4.32;;
18820;SDS011;9539;59.332;18.034;2024-02-28T01:57:06;6.28;;;4.82;;
18820;SDS011;9539;59.332;18.034;2024-02-28T01:59:28;7.28;;;5.03;;
18820;SDS011;9539;59.332;18.034;2024-02-28T02:04:47;5.43;;;4.35;;
18820;SDS011;9539;59.332;18.034;2024-02-28T02:07:09;5.43;;;4.60;;
18820;SDS011;9539;59.332;18.034;2024-02-28T02:09:32;6.25;;;4.60;;
18820;SDS011;9539;59.332;18.034;2024-02-28T02:11:55;5.30;;;4.80;;
18820;SDS011;9539;59.332;18.034;2024-02-28T02:14:17;10.10;;;5.00;;
18820;SDS011;9539;59.332;18.034;2024-02-28T02:16:39;5.03;;;4.53;;
18820;SDS011;9539;59.332;18.034;2024-02-28T02:19:00;6.00;;;4.70;;
18820;SDS011;9539;59.332;18.034;2024-02-28T02:21:30;5.30;;;4.78;;
18820;SDS011;9539;59.332;18.034;2024-02-28T02:23:54;6.60;;;5.40;;
18820;SDS011;9539;59.332;18.034;2024-02-28T02:26:16;5.72;;;5.13;;
18820;SDS011;9539;59.332;18.034;2024-02-28T02:28:37;5.70;;;4.90;;
18820;SDS011;9539;59.332;18.034;2024-02-28T02:30:59;7.60;;;5.50;;
18820;SDS011;9539;59.332;18.034;2024-02-28T02:33:20;6.07;;;5.03;;
18820;SDS011;9539;59.332;18.034;2024-02-28T02:35:43;6.53;;;4.70;;
18820;SDS011;9539;59.332;18.034;2024-02-28T02:38:04;6.30;;;4.80;;
18820;SDS011;9539;59.332;18.034;2024-02-28T02:40:28;5.63;;;4.72;;
18820;SDS011;9539;59.332;18.034;2024-02-28T02:42:50;6.38;;;5.00;;
18820;SDS011;9539;59.332;18.034;2024-02-28T02:45:11;7.15;;;4.72;;
18820;SDS011;9539;59.332;18.034;2024-02-28T02:47:32;4.80;;;4.30;;
18820;SDS011;9539;59.332;18.034;2024-02-28T02:49:54;6.07;;;4.70;;
18820;SDS011;9539;59.332;18.034;2024-02-28T02:52:16;5.65;;;4.88;;
18820;SDS011;9539;59.332;18.034;2024-02-28T02:54:37;5.50;;;4.60;;
18820;SDS011;9539;59.332;18.034;2024-02-28T02:57:00;5.90;;;5.00;;
18820;SDS011;9539;59.332;18.034;2024-02-28T02:59:22;4.43;;;4.03;;
18820;SDS011;9539;59.332;18.034;2024-02-28T03:01:44;5.57;;;4.63;;
18820;SDS011;9539;59.332;18.034;2024-02-28T03:04:06;5.32;;;4.53;;
18820;SDS011;9539;59.332;18.034;2024-02-28T03:06:27;5.45;;;4.50;;
18820;SDS011;9539;59.332;18.034;2024-02-28T03:08:49;6.88;;;4.68;;
18820;SDS011;9539;59.332;18.034;2024-02-28T03:11:11;5.30;;;4.35;;
18820;SDS011;9539;59.332;18.034;2024-02-28T03:13:34;5.38;;;4.18;;
18820;SDS011;9539;59.332;18.034;2024-02-28T03:15:56;5.50;;;4.10;;
18820;SDS011;9539;59.332;18.034;2024-02-28T03:18:17;5.60;;;5.00;;
18820;SDS011;9539;59.332;18.034;2024-02-28T03:20:39;5.90;;;4.72;;
18820;SDS011;9539;59.332;18.034;2024-02-28T03:23:01;6.60;;;4.72;;
18820;SDS011;9539;59.332;18.034;2024-02-28T03:25:22;5.22;;;4.50;;
18820;SDS011;9539;59.332;18.034;2024-02-28T03:27:44;6.90;;;4.35;;
18820;SDS011;9539;59.332;18.034;2024-02-28T03:30:08;8.02;;;4.70;;
18820;SDS011;9539;59.332;18.034;2024-02-28T03:32:30;5.75;;;4.45;;
18820;SDS011;9539;59.332;18.034;2024-02-28T03:34:51;5.47;;;4.22;;
18820;SDS011;9539;59.332;18.034;2024-02-28T03:37:13;4.68;;;4.15;;
18820;SDS011;9539;59.332;18.034;2024-02-28T03:39:35;4.47;;;3.75;;
18820;SDS011;9539;59.332;18.034;2024-02-28T03:41:56;5.75;;;4.25;;
18820;SDS011;9539;59.332;18.034;2024-02-28T03:44:18;5.50;;;4.70;;
18820;SDS011;9539;59.332;18.034;2024-02-28T03:46:43;3.88;;;3.55;;
18820;SDS011;9539;59.332;18.034;2024-02-28T03:49:04;5.00;;;4.40;;
18820;SDS011;9539;59.332;18.034;2024-02-28T03:51:25;4.82;;;4.30;;
18820;SDS011;9539;59.332;18.034;2024-02-28T03:53:47;7.60;;;4.30;;
18820;SDS011;9539;59.332;18.034;2024-02-28T03:56:08;5.32;;;4.20;;
18820;SDS011;9539;59.332;18.034;2024-02-28T03:58:31;4.95;;;4.22;;
18820;SDS011;9539;59.332;18.034;2024-02-28T04:00:53;4.57;;;4.03;;
18820;SDS011;9539;59.332;18.034;2024-02-28T04:03:17;5.03;;;4.47;;
18820;SDS011;9539;59.332;18.034;2024-02-28T04:05:38;5.28;;;4.55;;
18820;SDS011;9539;59.332;18.034;2024-02-28T04:08:00;5.10;;;4.22;;
18820;SDS011;9539;59.332;18.034;2024-02-28T04:10:21;4.82;;;4.25;;
18820;SDS011;9539;59.332;18.034;2024-02-28T04:12:43;5.90;;;4.43;;
18820;SDS011;9539;59.332;18.034;2024-02-28T04:15:05;5.68;;;4.72;;
18820;SDS011;9539;59.332;18.034;2024-02-28T04:17:27;4.43;;;4.00;;
18820;SDS011;9539;59.332;18.034;2024-02-28T04:19:51;5.28;;;4.30;;
18820;SDS011;9539;59.332;18.034;2024-02-28T04:22:13;4.95;;;4.22;;
18820;SDS011;9539;59.332;18.034;2024-02-28T04:24:34;5.78;;;4.45;;
18820;SDS011;9539;59.332;18.034;2024-02-28T04:26:56;5.45;;;4.20;;
18820;SDS011;9539;59.332;18.034;2024-02-28T04:29:19;5.25;;;4.72;;
18820;SDS011;9539;59.332;18.034;2024-02-28T04:31:41;5.50;;;4.85;;
18820;SDS011;9539;59.332;18.034;2024-02-28T04:34:03;6.32;;;5.20;;
18820;SDS011;9539;59.332;18.034;2024-02-28T04:36:26;5.95;;;4.88;;
18820;SDS011;9539;59.332;18.034;2024-02-28T04:38:47;6.18;;;5.30;;
18820;SDS011;9539;59.332;18.034;2024-02-28T04:41:09;6.25;;;4.95;;
18820;SDS011;9539;59.332;18.034;2024-02-28T04:43:31;7.70;;;5.15;;
18820;SDS011;9539;59.332;18.034;2024-02-28T04:45:53;5.75;;;5.07;;
18820;SDS011;9539;59.332;18.034;2024-02-28T04:48:15;6.10;;;4.82;;
18820;SDS011;9539;59.332;18.034;2024-02-28T04:50:36;6.00;;;5.32;;
18820;SDS011;9539;59.332;18.034;2024-02-28T04:52:59;6.07;;;4.90;;
18820;SDS011;9539;59.332;18.034;2024-02-28T04:55:21;9.18;;;5.30;;
18820;SDS011;9539;59.332;18.034;2024-02-28T04:57:43;9.57;;;5.53;;
18820;SDS011;9539;59.332;18.034;2024-02-28T05:00:05;6.28;;;5.00;;
18820;SDS011;9539;59.332;18.034;2024-02-28T05:02:28;7.75;;;5.68;;
18820;SDS011;9539;59.332;18.034;2024-02-28T05:04:49;6.35;;;5.15;;
18820;SDS011;9539;59.332;18.034;2024-02-28T05:07:10;7.13;;;5.32;;
18820;SDS011;9539;59.332;18.034;2024-02-28T05:09:33;7.82;;;5.05;;
18820;SDS011;9539;59.332;18.034;2024-02-28T05:11:55;11.48;;;5.40;;
18820;SDS011;9539;59.332;18.034;2024-02-28T05:14:17;6.00;;;5.07;;
18820;SDS011;9539;59.332;18.034;2024-02-28T05:16:38;5.68;;;4.80;;
18820;SDS011;9539;59.332;18.034;2024-02-28T05:19:00;6.90;;;5.10;;
18820;SDS011;9539;59.332;18.034;2024-02-28T05:21:23;7.97;;;5.95;;
18820;SDS011;9539;59.332;18.034;2024-02-28T05:23:44;7.00;;;5.57;;
18820;SDS011;9539;59.332;18.034;2024-02-28T05:26:07;6.40;;;5.18;;
18820;SDS011;9539;59.332;18.034;2024-02-28T05:28:29;6.93;;;5.50;;
18820;SDS011;9539;59.332;18.034;2024-02-28T05:30:51;7.20;;;5.45;;
18820;SDS011;9539;59.332;18.034;2024-02-28T05:33:13;6.25;;;5.22;;
18820;SDS011;9539;59.332;18.034;2024-02-28T05:35:34;6.32;;;5.57;;
18820;SDS011;9539;59.332;18.034;2024-02-28T05:37:56;6.15;;;4.78;;
18820;SDS011;9539;59.332;18.034;2024-02-28T05:40:18;6.40;;;5.60;;
18820;SDS011;9539;59.332;18.034;2024-02-28T05:42:41;8.32;;;5.40;;
18820;SDS011;9539;59.332;18.034;2024-02-28T05:45:03;7.70;;;6.03;;
18820;SDS011;9539;59.332;18.034;2024-02-28T05:47:25;8.23;;;5.18;;
18820;SDS011;9539;59.332;18.034;2024-02-28T05:49:46;8.93;;;5.55;;
18820;SDS011;9539;59.332;18.034;2024-02-28T05:52:09;8.10;;;5.70;;
18820;SDS011;9539;59.332;18.034;2024-02-28T05:54:31;8.70;;;5.18;;
18820;SDS011;9539;59.332;18.034;2024-02-28T05:56:54;6.40;;;5.35;;
18820;SDS011;9539;59.332;18.034;2024-02-28T05:59:17;6.68;;;5.03;;
18820;SDS011;9539;59.332;18.034;2024-02-28T06:01:39;6.03;;;5.40;;
18820;SDS011;9539;59.332;18.034;2024-02-28T06:04:00;5.75;;;4.88;;
18820;SDS011;9539;59.332;18.034;2024-02-28T06:06:23;6.05;;;5.45;;
18820;SDS011;9539;59.332;18.034;2024-02-28T06:08:46;10.95;;;5.22;;
18820;SDS011;9539;59.332;18.034;2024-02-28T06:11:07;5.90;;;4.90;;
18820;SDS011;9539;59.332;18.034;2024-02-28T06:13:29;6.65;;;5.20;;
18820;SDS011;9539;59.332;18.034;2024-02-28T06:15:52;6.18;;;5.20;;
18820;SDS011;9539;59.332;18.034;2024-02-28T06:18:14;5.90;;;4.13;;
18820;SDS011;9539;59.332;18.034;2024-02-28T06:20:36;7.47;;;5.55;;
18820;SDS011;9539;59.332;18.034;2024-02-28T06:22:58;7.60;;;5.45;;
18820;SDS011;9539;59.332;18.034;2024-02-28T06:25:19;9.15;;;6.00;;
18820;SDS011;9539;59.332;18.034;2024-02-28T06:27:43;9.13;;;5.18;;
18820;SDS011;9539;59.332;18.034;2024-02-28T06:30:05;12.48;;;5.75;;
18820;SDS011;9539;59.332;18.034;2024-02-28T06:32:29;5.53;;;5.00;;
18820;SDS011;9539;59.332;18.034;2024-02-28T06:34:50;6.95;;;5.55;;
18820;SDS011;9539;59.332;18.034;2024-02-28T06:37:13;7.65;;;5.35;;
18820;SDS011;9539;59.332;18.034;2024-02-28T06:39:35;7.25;;;5.45;;
18820;SDS011;9539;59.332;18.034;2024-02-28T06:41:56;7.32;;;5.20;;
18820;SDS011;9539;59.332;18.034;2024-02-28T06:44:18;6.38;;;4.75;;
18820;SDS011;9539;59.332;18.034;2024-02-28T06:46:40;6.32;;;4.93;;
18820;SDS011;9539;59.332;18.034;2024-02-28T06:49:03;7.15;;;5.28;;
18820;SDS011;9539;59.332;18.034;2024-02-28T06:51:25;6.80;;;4.93;;
18820;SDS011;9539;59.332;18.034;2024-02-28T06:53:47;10.70;;;5.07;;
18820;SDS011;9539;59.332;18.034;2024-02-28T06:56:09;8.43;;;5.13;;
18820;SDS011;9539;59.332;18.034;2024-02-28T06:58:31;11.23;;;4.88;;
18820;SDS011;9539;59.332;18.034;2024-02-28T07:00:52;5.68;;;4.40;;
18820;SDS011;9539;59.332;18.034;2024-02-28T07:03:13;8.85;;;5.15;;
18820;SDS011;9539;59.332;18.034;2024-02-28T07:05:36;7.50;;;4.80;;
18820;SDS011;9539;59.332;18.034;2024-02-28T07:07:58;8.77;;;5.15;;
18820;SDS011;9539;59.332;18.034;2024-02-28T07:10:20;7.20;;;4.72;;
18820;SDS011;9539;59.332;18.034;2024-02-28T07:12:41;8.95;;;5.22;;
18820;SDS011;9539;59.332;18.034;2024-02-28T07:15:03;7.13;;;4.60;;
18820;SDS011;9539;59.332;18.034;2024-02-28T07:17:24;6.65;;;4.28;;
18820;SDS011;9539;59.332;18.034;2024-02-28T07:19:46;5.35;;;4.32;;
18820;SDS011;9539;59.332;18.034;2024-02-28T07:22:09;6.43;;;4.07;;
18820;SDS011;9539;59.332;18.034;2024-02-28T07:24:31;5.30;;;4.18;;
18820;SDS011;9539;59.332;18.034;2024-02-28T07:26:52;6.25;;;3.83;;
18820;SDS011;9539;59.332;18.034;2024-02-28T07:29:14;5.95;;;4.15;;
18820;SDS011;9539;59.332;18.034;2024-02-28T07:31:36;7.30;;;4.38;;
18820;SDS011;9539;59.332;18.034;2024-02-28T07:33:58;6.28;;;4.35;;
18820;SDS011;9539;59.332;18.034;2024-02-28T07:36:19;3.95;;;3.47;;
18820;SDS011;9539;59.332;18.034;2024-02-28T07:38:43;8.43;;;4.35;;
18820;SDS011;9539;59.332;18.034;2024-02-28T07:41:04;6.72;;;4.30;;
18820;SDS011;9539;59.332;18.034;2024-02-28T07:43:26;8.88;;;4.47;;
18820;SDS011;9539;59.332;18.034;2024-02-28T07:45:48;5.93;;;4.07;;
18820;SDS011;9539;59.332;18.034;2024-02-28T07:48:10;5.55;;;4.00;;
18820;SDS011;9539;59.332;18.034;2024-02-28T07:50:32;4.85;;;3.53;;
18820;SDS011;9539;59.332;18.034;2024-02-28T07:52:54;16.70;;;4.07;;
18820;SDS011;9539;59.332;18.034;2024-02-28T07:55:17;9.95;;;3.97;;
18820;SDS011;9539;59.332;18.034;2024-02-28T07:57:40;14.23;;;4.20;;
18820;SDS011;9539;59.332;18.034;2024-02-28T08:00:01;6.57;;;3.67;;
18820;SDS011;9539;59.332;18.034;2024-02-28T08:02:23;4.85;;;3.65;;
18820;SDS011;9539;59.332;18.034;2024-02-28T08:04:45;6.55;;;3.95;;
18820;SDS011;9539;59.332;18.034;2024-02-28T08:07:07;7.78;;;4.00;;
18820;SDS011;9539;59.332;18.034;2024-02-28T08:09:29;9.18;;;3.88;;
18820;SDS011;9539;59.332;18.034;2024-02-28T08:11:52;5.03;;;3.50;;
18820;SDS011;9539;59.332;18.034;2024-02-28T08:14:13;4.93;;;3.10;;
18820;SDS011;9539;59.332;18.034;2024-02-28T08:16:35;3.97;;;3.17;;
18820;SDS011;9539;59.332;18.034;2024-02-28T08:18:57;4.20;;;3.30;;
18820;SDS011;9539;59.332;18.034;2024-02-28T08:21:19;4.35;;;3.40;;
18820;SDS011;9539;59.332;18.034;2024-02-28T08:23:40;6.43;;;3.35;;
18820;SDS011;9539;59.332;18.034;2024-02-28T08:26:02;5.80;;;3.75;;
18820;SDS011;9539;59.332;18.034;2024-02-28T08:28:25;8.98;;;3.45;;
18820;SDS011;9539;59.332;18.034;2024-02-28T08:30:47;5.97;;;3.83;;
18820;SDS011;9539;59.332;18.034;2024-02-28T08:33:09;4.47;;;3.20;;
18820;SDS011;9539;59.332;18.034;2024-02-28T08:35:31;7.43;;;3.30;;
18820;SDS011;9539;59.332;18.034;2024-02-28T08:37:53;7.72;;;3.40;;
18820;SDS011;9539;59.332;18.034;2024-02-28T08:40:14;7.15;;;3.63;;
18820;SDS011;9539;59.332;18.034;2024-02-28T08:42:36;4.97;;;3.42;;
18820;SDS011;9539;59.332;18.034;2024-02-28T08:45:00;4.45;;;3.42;;
18820;SDS011;9539;59.332;18.034;2024-02-28T08:47:23;9.07;;;3.60;;
18820;SDS011;9539;59.332;18.034;2024-02-28T08:49:45;5.82;;;3.88;;
18820;SDS011;9539;59.332;18.034;2024-02-28T08:52:06;7.63;;;3.30;;
18820;SDS011;9539;59.332;18.034;2024-02-28T08:54:28;5.95;;;3.38;;
18820;SDS011;9539;59.332;18.034;2024-02-28T08:56:50;7.90;;;3.80;;
18820;SDS011;9539;59.332;18.034;2024-02-28T08:59:11;9.88;;;3.65;;
18820;SDS011;9539;59.332;18.034;2024-02-28T09:01:34;7.90;;;3.55;;
18820;SDS011;9539;59.332;18.034;2024-02-28T09:03:57;6.00;;;3.35;;
18820;SDS011;9539;59.332;18.034;2024-02-28T09:06:18;12.27;;;3.38;;
18820;SDS011;9539;59.332;18.034;2024-02-28T09:08:40;6.07;;;3.55;;
18820;SDS011;9539;59.332;18.034;2024-02-28T09:11:01;8.35;;;3.25;;
18820;SDS011;9539;59.332;18.034;2024-02-28T09:13:24;5.32;;;3.35;;
18820;SDS011;9539;59.332;18.034;2024-02-28T09:15:46;11.52;;;3.83;;
18820;SDS011;9539;59.332;18.034;2024-02-28T09:18:09;10.65;;;3.40;;
18820;SDS011;9539;59.332;18.034;2024-02-28T09:20:31;3.80;;;3.00;;
18820;SDS011;9539;59.332;18.034;2024-02-28T09:22:53;5.07;;;3.15;;
18820;SDS011;9539;59.332;18.034;2024-02-28T09:25:15;4.20;;;3.30;;
18820;SDS011;9539;59.332;18.034;2024-02-28T09:27:38;4.30;;;3.45;;
18820;SDS011;9539;59.332;18.034;2024-02-28T09:29:59;4.97;;;3.35;;
18820;SDS011;9539;59.332;18.034;2024-02-28T09:32:21;5.38;;;3.30;;
18820;SDS011;9539;59.332;18.034;2024-02-28T09:34:44;9.32;;;4.00;;
18820;SDS011;9539;59.332;18.034;2024-02-28T09:37:06;3.53;;;3.22;;
18820;SDS011;9539;59.332;18.034;2024-02-28T09:39:28;9.52;;;3.55;;
18820;SDS011;9539;59.332;18.034;2024-02-28T09:41:50;4.10;;;3.40;;
18820;SDS011;9539;59.332;18.034;2024-02-28T09:44:11;8.25;;;3.45;;
18820;SDS011;9539;59.332;18.034;2024-02-28T09:46:33;3.70;;;3.10;;
18820;SDS011;9539;59.332;18.034;2024-02-28T09:48:55;7.93;;;3.10;;
18820;SDS011;9539;59.332;18.034;2024-02-28T09:51:18;7.72;;;3.55;;
18820;SDS011;9539;59.332;18.034;2024-02-28T09:53:43;6.30;;;3.05;;
18820;SDS011;9539;59.332;18.034;2024-02-28T09:56:05;17.63;;;3.60;;
18820;SDS011;9539;59.332;18.034;2024-02-28T09:58:27;10.50;;;3.13;;
18820;SDS011;9539;59.332;18.034;2024-02-28T10:00:59;8.00;;;3.92;;
18820;SDS011;9539;59.332;18.034;2024-02-28T10:03:26;4.65;;;2.90;;
18820;SDS011;9539;59.332;18.034;2024-02-28T10:05:48;6.25;;;3.00;;
18820;SDS011;9539;59.332;18.034;2024-02-28T10:08:11;4.45;;;2.97;;
18820;SDS011;9539;59.332;18.034;2024-02-28T10:10:33;6.93;;;3.05;;
18820;SDS011;9539;59.332;18.034;2024-02-28T10:12:54;7.57;;;2.90;;
18820;SDS011;9539;59.332;18.034;2024-02-28T10:15:17;9.07;;;3.47;;
18820;SDS011;9539;59.332;18.034;2024-02-28T10:17:38;7.53;;;2.88;;
18820;SDS011;9539;59.332;18.034;2024-02-28T10:20:00;6.15;;;3.03;;
18820;SDS011;9539;59.332;18.034;2024-02-28T10:22:23;5.47;;;3.40;;
18820;SDS011;9539;59.332;18.034;2024-02-28T10:24:47;5.55;;;3.10;;
18820;SDS011;9539;59.332;18.034;2024-02-28T10:27:09;8.23;;;3.38;;
18820;SDS011;9539;59.332;18.034;2024-02-28T10:29:30;5.78;;;2.97;;
18820;SDS011;9539;59.332;18.034;2024-02-28T10:31:52;5.35;;;3.00;;
18820;SDS011;9539;59.332;18.034;2024-02-28T10:34:16;8.18;;;3.30;;
18820;SDS011;9539;59.332;18.034;2024-02-28T10:36:38;5.32;;;2.65;;
18820;SDS011;9539;59.332;18.034;2024-02-28T10:39:00;8.73;;;3.38;;
18820;SDS011;9539;59.332;18.034;2024-02-28T10:41:24;7.32;;;3.25;;
18820;SDS011;9539;59.332;18.034;2024-02-28T10:43:45;8.90;;;2.67;;
18820;SDS011;9539;59.332;18.034;2024-02-28T10:46:07;8.30;;;3.10;;
18820;SDS011;9539;59.332;18.034;2024-02-28T10:48:30;4.40;;;2.88;;
18820;SDS011;9539;59.332;18.034;2024-02-28T10:50:51;8.57;;;2.97;;
18820;SDS011;9539;59.332;18.034;2024-02-28T10:53:15;5.10;;;3.08;;
18820;SDS011;9539;59.332;18.034;2024-02-28T10:55:39;6.63;;;2.88;;
18820;SDS011;9539;59.332;18.034;2024-02-28T10:58:03;6.95;;;2.90;;
18820;SDS011;9539;59.332;18.034;2024-02-28T11:00:27;9.52;;;3.13;;
18820;SDS011;9539;59.332;18.034;2024-02-28T11:02:49;9.52;;;3.22;;
18820;SDS011;9539;59.332;18.034;2024-02-28T11:05:11;6.93;;;3.08;;
18820;SDS011;9539;59.332;18.034;2024-02-28T11:07:33;11.80;;;3.38;;
18820;SDS011;9539;59.332;18.034;2024-02-28T11:09:54;6.13;;;2.80;;
18820;SDS011;9539;59.332;18.034;2024-02-28T11:12:26;7.32;;;3.03;;
18820;SDS011;9539;59.332;18.034;2024-02-28T11:14:56;14.02;;;3.17;;
18820;SDS011;9539;59.332;18.034;2024-02-28T11:17:18;10.13;;;3.50;;
18820;SDS011;9539;59.332;18.034;2024-02-28T11:19:47;6.03;;;3.08;;
18820;SDS011;9539;59.332;18.034;2024-02-28T11:22:10;9.32;;;3.03;;
18820;SDS011;9539;59.332;18.034;2024-02-28T11:24:33;8.45;;;3.65;;
18820;SDS011;9539;59.332;18.034;2024-02-28T11:26:56;5.03;;;2.67;;
18820;SDS011;9539;59.332;18.034;2024-02-28T11:29:21;5.15;;;3.20;;
18820;SDS011;9539;59.332;18.034;2024-02-28T11:31:44;7.78;;;4.07;;
18820;SDS011;9539;59.332;18.034;2024-02-28T11:34:06;11.57;;;3.58;;
18820;SDS011;9539;59.332;18.034;2024-02-28T11:36:27;10.10;;;3.67;;
18820;SDS011;9539;59.332;18.034;2024-02-28T11:38:50;7.10;;;3.33;;
18820;SDS011;9539;59.332;18.034;2024-02-28T11:41:11;7.20;;;3.45;;
18820;SDS011;9539;59.332;18.034;2024-02-28T11:43:33;6.13;;;3.67;;
18820;SDS011;9539;59.332;18.034;2024-02-28T11:45:55;6.00;;;3.45;;
18820;SDS011;9539;59.332;18.034;2024-02-28T11:48:19;7.00;;;3.33;;
18820;SDS011;9539;59.332;18.034;2024-02-28T11:50:40;9.38;;;3.92;;
18820;SDS011;9539;59.332;18.034;2024-02-28T11:53:02;9.13;;;3.92;;
18820;SDS011;9539;59.332;18.034;2024-02-28T11:55:25;16.40;;;3.83;;
18820;SDS011;9539;59.332;18.034;2024-02-28T11:57:47;8.50;;;3.70;;
18820;SDS011;9539;59.332;18.034;2024-02-28T12:00:09;6.10;;;3.97;;
18820;SDS011;9539;59.332;18.034;2024-02-28T12:02:33;10.10;;;3.50;;
18820;SDS011;9539;59.332;18.034;2024-02-28T12:04:59;5.28;;;3.47;;
18820;SDS011;9539;59.332;18.034;2024-02-28T12:07:21;7.15;;;3.22;;
18820;SDS011;9539;59.332;18.034;2024-02-28T12:09:43;5.40;;;3.60;;
18820;SDS011;9539;59.332;18.034;2024-02-28T12:12:06;9.77;;;3.95;;
18820;SDS011;9539;59.332;18.034;2024-02-28T12:14:29;12.52;;;4.10;;
18820;SDS011;9539;59.332;18.034;2024-02-28T12:16:51;10.20;;;4.00;;
18820;SDS011;9539;59.332;18.034;2024-02-28T12:19:13;7.95;;;3.97;;
18820;SDS011;9539;59.332;18.034;2024-02-28T12:21:37;10.68;;;4.05;;
18820;SDS011;9539;59.332;18.034;2024-02-28T12:23:59;7.57;;;4.20;;
18820;SDS011;9539;59.332;18.034;2024-02-28T12:26:20;13.73;;;3.67;;
18820;SDS011;9539;59.332;18.034;2024-02-28T12:28:42;7.57;;;3.72;;
18820;SDS011;9539;59.332;18.034;2024-02-28T12:31:03;10.65;;;4.07;;
18820;SDS011;9539;59.332;18.034;2024-02-28T12:33:25;29.65;;;4.60;;
18820;SDS011;9539;59.332;18.034;2024-02-28T12:35:47;7.28;;;4.20;;
18820;SDS011;9539;59.332;18.034;2024-02-28T12:38:10;17.38;;;4.72;;
18820;SDS011;9539;59.332;18.034;2024-02-28T12:40:32;8.98;;;4.10;;
18820;SDS011;9539;59.332;18.034;2024-02-28T12:42:54;6.18;;;3.20;;
18820;SDS011;9539;59.332;18.034;2024-02-28T12:45:16;9.02;;;3.70;;
18820;SDS011;9539;59.332;18.034;2024-02-28T12:47:38;11.65;;;3.83;;
18820;SDS011;9539;59.332;18.034;2024-02-28T12:50:00;6.93;;;4.22;;
18820;SDS011;9539;59.332;18.034;2024-02-28T12:52:22;6.30;;;3.70;;
18820;SDS011;9539;59.332;18.034;2024-02-28T12:54:45;11.20;;;4.07;;
18820;SDS011;9539;59.332;18.034;2024-02-28T12:57:07;13.82;;;4.32;;
18820;SDS011;9539;59.332;18.034;2024-02-28T12:59:29;15.80;;;3.90;;
18820;SDS011;9539;59.332;18.034;2024-02-28T13:01:50;4.80;;;3.72;;
18820;SDS011;9539;59.332;18.034;2024-02-28T13:04:12;15.48;;;4.40;;
18820;SDS011;9539;59.332;18.034;2024-02-28T13:06:34;11.60;;;4.40;;
18820;SDS011;9539;59.332;18.034;2024-02-28T13:08:55;8.77;;;4.35;;
18820;SDS011;9539;59.332;18.034;2024-02-28T13:11:19;5.65;;;3.70;;
18820;SDS011;9539;59.332;18.034;2024-02-28T13:13:41;16.85;;;4.45;;
18820;SDS011;9539;59.332;18.034;2024-02-28T13:16:03;12.73;;;4.50;;
18820;SDS011;9539;59.332;18.034;2024-02-28T13:18:25;9.85;;;4.03;;
18820;SDS011;9539;59.332;18.034;2024-02-28T13:20:45;6.72;;;3.90;;
18820;SDS011;9539;59.332;18.034;2024-02-28T13:23:07;14.10;;;4.40;;
18820;SDS011;9539;59.332;18.034;2024-02-28T13:25:29;13.52;;;4.43;;
18820;SDS011;9539;59.332;18.034;2024-02-28T13:27:52;13.30;;;4.30;;
18820;SDS011;9539;59.332;18.034;2024-02-28T13:30:13;13.15;;;3.97;;
18820;SDS011;9539;59.332;18.034;2024-02-28T13:32:35;20.50;;;4.47;;
18820;SDS011;9539;59.332;18.034;2024-02-28T13:34:57;18.40;;;4.53;;
18820;SDS011;9539;59.332;18.034;2024-02-28T13:37:18;9.75;;;3.95;;
18820;SDS011;9539;59.332;18.034;2024-02-28T13:39:40;16.50;;;4.03;;
18820;SDS011;9539;59.332;18.034;2024-02-28T13:42:02;10.25;;;3.97;;
18820;SDS011;9539;59.332;18.034;2024-02-28T13:44:27;10.27;;;4.57;;
18820;SDS011;9539;59.332;18.034;2024-02-28T13:46:49;7.15;;;4.00;;
18820;SDS011;9539;59.332;18.034;2024-02-28T13:49:11;6.13;;;3.55;;
18820;SDS011;9539;59.332;18.034;2024-02-28T13:51:33;7.45;;;3.83;;
18820;SDS011;9539;59.332;18.034;2024-02-28T13:53:55;15.02;;;4.43;;
18820;SDS011;9539;59.332;18.034;2024-02-28T13:56:17;9.90;;;3.40;;
18820;SDS011;9539;59.332;18.034;2024-02-28T13:58:38;5.03;;;3.40;;
18820;SDS011;9539;59.332;18.034;2024-02-28T14:01:02;14.73;;;4.32;;
18820;SDS011;9539;59.332;18.034;2024-02-28T14:03:23;7.47;;;3.45;;
18820;SDS011;9539;59.332;18.034;2024-02-28T14:05:45;10.93;;;3.40;;
18820;SDS011;9539;59.332;18.034;2024-02-28T14:08:07;5.60;;;3.05;;
18820;SDS011;9539;59.332;18.034;2024-02-28T14:10:29;13.45;;;3.53;;
18820;SDS011;9539;59.332;18.034;2024-02-28T14:12:51;4.63;;;3.42;;
18820;SDS011;9539;59.332;18.034;2024-02-28T14:15:13;8.07;;;3.03;;
18820;SDS011;9539;59.332;18.034;2024-02-28T14:17:36;6.30;;;3.10;;